sensor_id;sensor_type;location;lat;lon;timestamp;pressure;altitude;pressure_sealevel;temperature
76898;BMP180;65856;52.178;21.176;2023-09-12T00:00:56;100297.00;;;17.70
76898;BMP180;65856;52.178;21.176;2023-09-12T00:03:23;100298.60;;;17.70
76898;BMP180;65856;52.178;21.176;2023-09-12T00:05:58;100296.60;;;17.70
76898;BMP180;65856;52.178;21.176;2023-09-12T00:08:26;100295.20;;;17.70
76898;BMP180;65856;52.178;21.176;2023-09-12T00:11:00;100290.40;;;17.70
76898;BMP180;65856;52.178;21.176;2023-09-12T00:13:27;100289.80;;;17.70
76898;BMP180;65856;52.178;21.176;2023-09-12T00:15:52;100289.60;;;17.70
76898;BMP180;65856;52.178;21.176;2023-09-12T00:18:18;100293.20;;;17.70
76898;BMP180;65856;52.178;21.176;2023-09-12T00:20:43;100292.40;;;17.60
76898;BMP180;65856;52.178;21.176;2023-09-12T00:23:09;100297.00;;;17.60
76898;BMP180;65856;52.178;21.176;2023-09-12T00:25:34;100301.40;;;17.50
76898;BMP180;65856;52.178;21.176;2023-09-12T00:28:00;100298.80;;;17.50
76898;BMP180;65856;52.178;21.176;2023-09-12T00:30:25;100300.00;;;17.50
76898;BMP180;65856;52.178;21.176;2023-09-12T00:32:51;100297.00;;;17.50
76898;BMP180;65856;52.178;21.176;2023-09-12T00:35:16;100299.00;;;17.50
76898;BMP180;65856;52.178;21.176;2023-09-12T00:37:42;100297.40;;;17.48
76898;BMP180;65856;52.178;21.176;2023-09-12T00:40:07;100301.00;;;17.40
76898;BMP180;65856;52.178;21.176;2023-09-12T00:42:33;100299.40;;;17.40
76898;BMP180;65856;52.178;21.176;2023-09-12T00:44:58;100298.60;;;17.40
76898;BMP180;65856;52.178;21.176;2023-09-12T00:47:27;100299.00;;;17.40
76898;BMP180;65856;52.178;21.176;2023-09-12T00:49:55;100299.60;;;17.40
76898;BMP180;65856;52.178;21.176;2023-09-12T00:52:24;100296.20;;;17.40
76898;BMP180;65856;52.178;21.176;2023-09-12T00:54:51;100298.00;;;17.40
76898;BMP180;65856;52.178;21.176;2023-09-12T00:57:19;100296.00;;;17.40
76898;BMP180;65856;52.178;21.176;2023-09-12T00:59:47;100291.80;;;17.40
76898;BMP180;65856;52.178;21.176;2023-09-12T01:02:14;100296.20;;;17.30
76898;BMP180;65856;52.178;21.176;2023-09-12T01:04:40;100292.80;;;17.30
76898;BMP180;65856;52.178;21.176;2023-09-12T01:07:07;100293.40;;;17.30
76898;BMP180;65856;52.178;21.176;2023-09-12T01:09:33;100295.00;;;17.30
76898;BMP180;65856;52.178;21.176;2023-09-12T01:12:00;100294.00;;;17.30
76898;BMP180;65856;52.178;21.176;2023-09-12T01:14:30;100290.00;;;17.30
76898;BMP180;65856;52.178;21.176;2023-09-12T01:16:58;100292.00;;;17.30
76898;BMP180;65856;52.178;21.176;2023-09-12T01:19:25;100291.00;;;17.30
76898;BMP180;65856;52.178;21.176;2023-09-12T01:22:09;100291.80;;;17.20
76898;BMP180;65856;52.178;21.176;2023-09-12T01:28:29;100287.40;;;17.16
76898;BMP180;65856;52.178;21.176;2023-09-12T01:31:01;100291.60;;;17.10
76898;BMP180;65856;52.178;21.176;2023-09-12T01:33:28;100291.20;;;17.10
76898;BMP180;65856;52.178;21.176;2023-09-12T01:35:54;100291.00;;;17.10
76898;BMP180;65856;52.178;21.176;2023-09-12T01:38:21;100290.00;;;17.10
76898;BMP180;65856;52.178;21.176;2023-09-12T01:40:51;100292.40;;;17.10
76898;BMP180;65856;52.178;21.176;2023-09-12T01:43:21;100290.20;;;17.00
76898;BMP180;65856;52.178;21.176;2023-09-12T01:45:55;100292.20;;;17.00
76898;BMP180;65856;52.178;21.176;2023-09-12T01:48:26;100286.60;;;17.02
76898;BMP180;65856;52.178;21.176;2023-09-12T01:51:05;100284.60;;;17.06
76898;BMP180;65856;52.178;21.176;2023-09-12T01:53:32;100280.40;;;17.02
76898;BMP180;65856;52.178;21.176;2023-09-12T01:55:59;100281.60;;;17.00
76898;BMP180;65856;52.178;21.176;2023-09-12T01:58:26;100281.20;;;17.00
76898;BMP180;65856;52.178;21.176;2023-09-12T02:00:52;100278.40;;;17.00
76898;BMP180;65856;52.178;21.176;2023-09-12T02:03:17;100278.60;;;16.94
76898;BMP180;65856;52.178;21.176;2023-09-12T02:05:43;100278.40;;;16.90
76898;BMP180;65856;52.178;21.176;2023-09-12T02:08:09;100281.60;;;16.90
76898;BMP180;65856;52.178;21.176;2023-09-12T02:10:34;100276.60;;;16.90
76898;BMP180;65856;52.178;21.176;2023-09-12T02:13:00;100274.00;;;16.90
76898;BMP180;65856;52.178;21.176;2023-09-12T02:15:25;100277.00;;;16.84
76898;BMP180;65856;52.178;21.176;2023-09-12T02:17:52;100274.60;;;16.80
76898;BMP180;65856;52.178;21.176;2023-09-12T02:20:17;100272.40;;;16.80
76898;BMP180;65856;52.178;21.176;2023-09-12T02:22:44;100277.80;;;16.80
76898;BMP180;65856;52.178;21.176;2023-09-12T02:25:10;100277.40;;;16.88
76898;BMP180;65856;52.178;21.176;2023-09-12T02:27:36;100278.20;;;16.90
76898;BMP180;65856;52.178;21.176;2023-09-12T02:30:01;100274.80;;;16.90
76898;BMP180;65856;52.178;21.176;2023-09-12T02:32:28;100277.80;;;16.88
76898;BMP180;65856;52.178;21.176;2023-09-12T02:34:53;100280.40;;;16.80
76898;BMP180;65856;52.178;21.176;2023-09-12T02:37:21;100283.20;;;16.70
76898;BMP180;65856;52.178;21.176;2023-09-12T02:39:47;100282.00;;;16.70
76898;BMP180;65856;52.178;21.176;2023-09-12T02:42:12;100282.80;;;16.60
76898;BMP180;65856;52.178;21.176;2023-09-12T02:44:38;100286.00;;;16.60
76898;BMP180;65856;52.178;21.176;2023-09-12T02:47:04;100288.60;;;16.60
76898;BMP180;65856;52.178;21.176;2023-09-12T02:49:30;100290.20;;;16.50
76898;BMP180;65856;52.178;21.176;2023-09-12T02:51:55;100284.00;;;16.54
76898;BMP180;65856;52.178;21.176;2023-09-12T02:54:21;100286.00;;;16.50
76898;BMP180;65856;52.178;21.176;2023-09-12T02:56:46;100284.60;;;16.50
76898;BMP180;65856;52.178;21.176;2023-09-12T02:59:12;100285.20;;;16.50
76898;BMP180;65856;52.178;21.176;2023-09-12T03:01:37;100285.60;;;16.50
76898;BMP180;65856;52.178;21.176;2023-09-12T03:04:03;100288.40;;;16.50
76898;BMP180;65856;52.178;21.176;2023-09-12T03:06:29;100282.40;;;16.50
76898;BMP180;65856;52.178;21.176;2023-09-12T03:08:55;100286.00;;;16.50
76898;BMP180;65856;52.178;21.176;2023-09-12T03:11:21;100289.00;;;16.50
76898;BMP180;65856;52.178;21.176;2023-09-12T03:13:46;100289.40;;;16.44
76898;BMP180;65856;52.178;21.176;2023-09-12T03:16:13;100289.20;;;16.40
76898;BMP180;65856;52.178;21.176;2023-09-12T03:18:40;100288.20;;;16.40
76898;BMP180;65856;52.178;21.176;2023-09-12T03:21:06;100288.20;;;16.40
76898;BMP180;65856;52.178;21.176;2023-09-12T03:23:32;100290.80;;;16.40
76898;BMP180;65856;52.178;21.176;2023-09-12T03:26:05;100285.20;;;16.36
76898;BMP180;65856;52.178;21.176;2023-09-12T03:28:32;100284.60;;;16.30
76898;BMP180;65856;52.178;21.176;2023-09-12T03:31:11;100287.60;;;16.30
76898;BMP180;65856;52.178;21.176;2023-09-12T03:33:39;100288.40;;;16.32
76898;BMP180;65856;52.178;21.176;2023-09-12T03:36:08;100290.40;;;16.30
76898;BMP180;65856;52.178;21.176;2023-09-12T03:38:35;100290.00;;;16.30
76898;BMP180;65856;52.178;21.176;2023-09-12T03:41:01;100300.20;;;16.30
76898;BMP180;65856;52.178;21.176;2023-09-12T03:43:27;100298.80;;;16.30
76898;BMP180;65856;52.178;21.176;2023-09-12T03:45:53;100300.20;;;16.30
76898;BMP180;65856;52.178;21.176;2023-09-12T03:48:19;100299.40;;;16.30
76898;BMP180;65856;52.178;21.176;2023-09-12T03:50:45;100298.20;;;16.30
76898;BMP180;65856;52.178;21.176;2023-09-12T03:53:11;100301.20;;;16.30
76898;BMP180;65856;52.178;21.176;2023-09-12T03:55:38;100304.80;;;16.30
76898;BMP180;65856;52.178;21.176;2023-09-12T03:58:03;100304.00;;;16.22
76898;BMP180;65856;52.178;21.176;2023-09-12T04:00:29;100305.20;;;16.30
76898;BMP180;65856;52.178;21.176;2023-09-12T04:02:54;100302.80;;;16.30
76898;BMP180;65856;52.178;21.176;2023-09-12T04:05:20;100305.40;;;16.30
76898;BMP180;65856;52.178;21.176;2023-09-12T04:07:45;100305.80;;;16.40
76898;BMP180;65856;52.178;21.176;2023-09-12T04:10:11;100307.00;;;16.40
76898;BMP180;65856;52.178;21.176;2023-09-12T04:12:37;100304.60;;;16.40
76898;BMP180;65856;52.178;21.176;2023-09-12T04:15:03;100302.80;;;16.46
76898;BMP180;65856;52.178;21.176;2023-09-12T04:17:28;100299.40;;;16.50
76898;BMP180;65856;52.178;21.176;2023-09-12T04:19:54;100302.60;;;16.50
76898;BMP180;65856;52.178;21.176;2023-09-12T04:22:19;100301.40;;;16.50
76898;BMP180;65856;52.178;21.176;2023-09-12T04:24:45;100296.60;;;16.50
76898;BMP180;65856;52.178;21.176;2023-09-12T04:27:10;100302.60;;;16.50
76898;BMP180;65856;52.178;21.176;2023-09-12T04:29:35;100303.80;;;16.56
76898;BMP180;65856;52.178;21.176;2023-09-12T04:32:03;100305.00;;;16.60
76898;BMP180;65856;52.178;21.176;2023-09-12T04:34:30;100305.00;;;16.60
76898;BMP180;65856;52.178;21.176;2023-09-12T04:36:56;100313.60;;;16.60
76898;BMP180;65856;52.178;21.176;2023-09-12T04:39:21;100315.00;;;16.70
76898;BMP180;65856;52.178;21.176;2023-09-12T04:41:47;100312.60;;;16.70
76898;BMP180;65856;52.178;21.176;2023-09-12T04:44:12;100317.20;;;16.76
76898;BMP180;65856;52.178;21.176;2023-09-12T04:46:38;100315.00;;;16.80
76898;BMP180;65856;52.178;21.176;2023-09-12T04:49:03;100312.60;;;16.90
76898;BMP180;65856;52.178;21.176;2023-09-12T04:51:29;100312.80;;;17.00
76898;BMP180;65856;52.178;21.176;2023-09-12T04:53:54;100314.60;;;17.00
76898;BMP180;65856;52.178;21.176;2023-09-12T04:56:20;100313.20;;;17.10
76898;BMP180;65856;52.178;21.176;2023-09-12T04:58:46;100315.60;;;17.10
76898;BMP180;65856;52.178;21.176;2023-09-12T05:01:11;100316.20;;;17.20
76898;BMP180;65856;52.178;21.176;2023-09-12T05:03:37;100316.00;;;17.20
76898;BMP180;65856;52.178;21.176;2023-09-12T05:06:02;100317.80;;;17.20
76898;BMP180;65856;52.178;21.176;2023-09-12T05:08:29;100324.20;;;17.30
76898;BMP180;65856;52.178;21.176;2023-09-12T05:10:55;100322.80;;;17.34
76898;BMP180;65856;52.178;21.176;2023-09-12T05:13:20;100320.00;;;17.40
76898;BMP180;65856;52.178;21.176;2023-09-12T05:15:46;100318.40;;;17.48
76898;BMP180;65856;52.178;21.176;2023-09-12T05:18:12;100328.00;;;17.50
76898;BMP180;65856;52.178;21.176;2023-09-12T05:20:38;100329.80;;;17.60
76898;BMP180;65856;52.178;21.176;2023-09-12T05:23:03;100330.80;;;17.66
76898;BMP180;65856;52.178;21.176;2023-09-12T05:25:29;100332.00;;;17.70
76898;BMP180;65856;52.178;21.176;2023-09-12T05:27:55;100331.80;;;17.76
76898;BMP180;65856;52.178;21.176;2023-09-12T05:30:22;100336.20;;;17.90
76898;BMP180;65856;52.178;21.176;2023-09-12T05:32:48;100337.00;;;17.94
76898;BMP180;65856;52.178;21.176;2023-09-12T05:35:13;100337.40;;;18.00
76898;BMP180;65856;52.178;21.176;2023-09-12T05:37:39;100340.40;;;18.10
76898;BMP180;65856;52.178;21.176;2023-09-12T05:40:05;100337.00;;;18.10
76898;BMP180;65856;52.178;21.176;2023-09-12T05:42:31;100342.60;;;18.20
76898;BMP180;65856;52.178;21.176;2023-09-12T05:44:57;100339.80;;;18.20
76898;BMP180;65856;52.178;21.176;2023-09-12T05:47:23;100338.20;;;18.30
76898;BMP180;65856;52.178;21.176;2023-09-12T05:49:49;100339.20;;;18.40
76898;BMP180;65856;52.178;21.176;2023-09-12T05:52:15;100339.00;;;18.50
76898;BMP180;65856;52.178;21.176;2023-09-12T05:54:41;100337.60;;;18.64
76898;BMP180;65856;52.178;21.176;2023-09-12T05:57:07;100340.00;;;18.80
76898;BMP180;65856;52.178;21.176;2023-09-12T05:59:38;100334.80;;;18.90
76898;BMP180;65856;52.178;21.176;2023-09-12T06:02:05;100339.80;;;19.00
76898;BMP180;65856;52.178;21.176;2023-09-12T06:04:32;100339.60;;;19.08
76898;BMP180;65856;52.178;21.176;2023-09-12T06:06:58;100340.00;;;19.10
76898;BMP180;65856;52.178;21.176;2023-09-12T06:09:24;100338.40;;;19.20
76898;BMP180;65856;52.178;21.176;2023-09-12T06:11:50;100342.20;;;19.30
76898;BMP180;65856;52.178;21.176;2023-09-12T06:14:16;100345.60;;;19.30
76898;BMP180;65856;52.178;21.176;2023-09-12T06:16:41;100345.40;;;19.40
76898;BMP180;65856;52.178;21.176;2023-09-12T06:19:07;100344.60;;;19.50
76898;BMP180;65856;52.178;21.176;2023-09-12T06:21:32;100346.80;;;19.60
76898;BMP180;65856;52.178;21.176;2023-09-12T06:24:16;100348.40;;;19.60
76898;BMP180;65856;52.178;21.176;2023-09-12T06:26:44;100349.40;;;19.70
76898;BMP180;65856;52.178;21.176;2023-09-12T06:29:10;100354.20;;;19.80
76898;BMP180;65856;52.178;21.176;2023-09-12T06:31:35;100359.00;;;19.90
76898;BMP180;65856;52.178;21.176;2023-09-12T06:34:02;100356.40;;;20.00
76898;BMP180;65856;52.178;21.176;2023-09-12T06:36:28;100358.40;;;20.10
76898;BMP180;65856;52.178;21.176;2023-09-12T06:38:58;100365.20;;;20.20
76898;BMP180;65856;52.178;21.176;2023-09-12T06:41:25;100366.60;;;20.30
76898;BMP180;65856;52.178;21.176;2023-09-12T06:43:50;100359.20;;;20.50
76898;BMP180;65856;52.178;21.176;2023-09-12T06:46:16;100361.80;;;20.60
76898;BMP180;65856;52.178;21.176;2023-09-12T06:48:45;100359.40;;;20.80
76898;BMP180;65856;52.178;21.176;2023-09-12T06:51:12;100356.00;;;20.92
76898;BMP180;65856;52.178;21.176;2023-09-12T06:53:38;100358.80;;;21.10
76898;BMP180;65856;52.178;21.176;2023-09-12T06:56:05;100357.00;;;21.30
76898;BMP180;65856;52.178;21.176;2023-09-12T06:58:31;100360.80;;;21.48
76898;BMP180;65856;52.178;21.176;2023-09-12T07:01:07;100355.80;;;21.66
76898;BMP180;65856;52.178;21.176;2023-09-12T07:03:34;100358.20;;;21.94
76898;BMP180;65856;52.178;21.176;2023-09-12T07:06:01;100362.00;;;22.20
76898;BMP180;65856;52.178;21.176;2023-09-12T07:08:31;100363.00;;;22.40
76898;BMP180;65856;52.178;21.176;2023-09-12T07:10:58;100365.20;;;22.60
76898;BMP180;65856;52.178;21.176;2023-09-12T07:13:31;100371.60;;;22.74
76898;BMP180;65856;52.178;21.176;2023-09-12T07:15:57;100368.20;;;22.90
76898;BMP180;65856;52.178;21.176;2023-09-12T07:18:23;100368.40;;;23.20
76898;BMP180;65856;52.178;21.176;2023-09-12T07:21:03;100369.80;;;23.50
76898;BMP180;65856;52.178;21.176;2023-09-12T07:23:30;100369.80;;;23.80
76898;BMP180;65856;52.178;21.176;2023-09-12T07:25:56;100370.40;;;24.04
76898;BMP180;65856;52.178;21.176;2023-09-12T07:28:31;100367.60;;;24.38
76898;BMP180;65856;52.178;21.176;2023-09-12T07:30:57;100371.20;;;24.70
76898;BMP180;65856;52.178;21.176;2023-09-12T07:33:23;100365.40;;;24.94
76898;BMP180;65856;52.178;21.176;2023-09-12T07:35:52;100367.80;;;25.20
76898;BMP180;65856;52.178;21.176;2023-09-12T07:38:18;100374.00;;;25.50
76898;BMP180;65856;52.178;21.176;2023-09-12T07:40:46;100373.20;;;25.60
76898;BMP180;65856;52.178;21.176;2023-09-12T07:43:11;100375.40;;;25.70
76898;BMP180;65856;52.178;21.176;2023-09-12T07:45:37;100374.20;;;25.86
76898;BMP180;65856;52.178;21.176;2023-09-12T07:48:09;100368.00;;;26.10
76898;BMP180;65856;52.178;21.176;2023-09-12T07:50:36;100371.20;;;26.30
76898;BMP180;65856;52.178;21.176;2023-09-12T07:53:07;100367.00;;;26.54
76898;BMP180;65856;52.178;21.176;2023-09-12T07:55:38;100373.20;;;26.80
76898;BMP180;65856;52.178;21.176;2023-09-12T07:58:15;100369.60;;;27.08
76898;BMP180;65856;52.178;21.176;2023-09-12T08:00:43;100371.00;;;27.30
76898;BMP180;65856;52.178;21.176;2023-09-12T08:03:09;100370.80;;;27.40
76898;BMP180;65856;52.178;21.176;2023-09-12T08:05:35;100373.80;;;27.56
76898;BMP180;65856;52.178;21.176;2023-09-12T08:08:01;100371.40;;;27.78
76898;BMP180;65856;52.178;21.176;2023-09-12T08:10:27;100374.40;;;28.00
76898;BMP180;65856;52.178;21.176;2023-09-12T08:12:53;100371.00;;;28.20
76898;BMP180;65856;52.178;21.176;2023-09-12T08:15:19;100370.80;;;28.40
76898;BMP180;65856;52.178;21.176;2023-09-12T08:17:45;100372.40;;;28.44
76898;BMP180;65856;52.178;21.176;2023-09-12T08:20:11;100370.40;;;28.60
76898;BMP180;65856;52.178;21.176;2023-09-12T08:22:37;100373.20;;;28.74
76898;BMP180;65856;52.178;21.176;2023-09-12T08:25:04;100373.80;;;28.90
76898;BMP180;65856;52.178;21.176;2023-09-12T08:27:31;100372.60;;;29.10
76898;BMP180;65856;52.178;21.176;2023-09-12T08:29:56;100371.00;;;29.20
76898;BMP180;65856;52.178;21.176;2023-09-12T08:32:22;100376.60;;;29.30
76898;BMP180;65856;52.178;21.176;2023-09-12T08:34:48;100376.80;;;29.40
76898;BMP180;65856;52.178;21.176;2023-09-12T08:37:14;100374.00;;;29.50
76898;BMP180;65856;52.178;21.176;2023-09-12T08:39:43;100377.60;;;29.60
76898;BMP180;65856;52.178;21.176;2023-09-12T08:42:14;100377.00;;;29.70
76898;BMP180;65856;52.178;21.176;2023-09-12T08:44:42;100374.40;;;29.80
76898;BMP180;65856;52.178;21.176;2023-09-12T08:47:10;100377.40;;;29.90
76898;BMP180;65856;52.178;21.176;2023-09-12T08:49:37;100378.00;;;29.98
76898;BMP180;65856;52.178;21.176;2023-09-12T08:52:04;100379.80;;;30.00
76898;BMP180;65856;52.178;21.176;2023-09-12T08:54:32;100380.40;;;30.10
76898;BMP180;65856;52.178;21.176;2023-09-12T08:57:01;100377.80;;;30.20
76898;BMP180;65856;52.178;21.176;2023-09-12T08:59:34;100376.80;;;30.30
76898;BMP180;65856;52.178;21.176;2023-09-12T09:02:02;100379.60;;;30.30
76898;BMP180;65856;52.178;21.176;2023-09-12T09:04:34;100370.80;;;30.40
76898;BMP180;65856;52.178;21.176;2023-09-12T09:07:01;100376.60;;;30.40
76898;BMP180;65856;52.178;21.176;2023-09-12T09:09:29;100375.00;;;30.50
76898;BMP180;65856;52.178;21.176;2023-09-12T09:11:55;100376.00;;;30.50
76898;BMP180;65856;52.178;21.176;2023-09-12T09:14:21;100376.60;;;30.60
76898;BMP180;65856;52.178;21.176;2023-09-12T09:16:46;100379.80;;;30.60
76898;BMP180;65856;52.178;21.176;2023-09-12T09:19:12;100375.60;;;30.66
76898;BMP180;65856;52.178;21.176;2023-09-12T09:21:38;100375.40;;;30.70
76898;BMP180;65856;52.178;21.176;2023-09-12T09:24:12;100374.00;;;30.70
76898;BMP180;65856;52.178;21.176;2023-09-12T09:26:48;100372.20;;;30.70
76898;BMP180;65856;52.178;21.176;2023-09-12T09:29:21;100373.40;;;30.70
76898;BMP180;65856;52.178;21.176;2023-09-12T09:31:50;100373.20;;;30.80
76898;BMP180;65856;52.178;21.176;2023-09-12T09:34:19;100373.00;;;30.80
76898;BMP180;65856;52.178;21.176;2023-09-12T09:36:50;100373.00;;;30.80
76898;BMP180;65856;52.178;21.176;2023-09-12T09:39:22;100371.60;;;30.90
76898;BMP180;65856;52.178;21.176;2023-09-12T09:41:56;100374.40;;;30.90
76898;BMP180;65856;52.178;21.176;2023-09-12T09:44:25;100374.80;;;30.90
76898;BMP180;65856;52.178;21.176;2023-09-12T09:47:00;100374.60;;;30.90
76898;BMP180;65856;52.178;21.176;2023-09-12T09:49:28;100371.00;;;30.90
76898;BMP180;65856;52.178;21.176;2023-09-12T09:51:56;100367.60;;;30.90
76898;BMP180;65856;52.178;21.176;2023-09-12T09:54:25;100366.40;;;30.86
76898;BMP180;65856;52.178;21.176;2023-09-12T09:56:56;100370.40;;;30.80
76898;BMP180;65856;52.178;21.176;2023-09-12T09:59:27;100370.80;;;30.70
76898;BMP180;65856;52.178;21.176;2023-09-12T10:02:00;100367.40;;;30.60
76898;BMP180;65856;52.178;21.176;2023-09-12T10:04:29;100368.00;;;30.60
76898;BMP180;65856;52.178;21.176;2023-09-12T10:06:58;100364.20;;;30.60
76898;BMP180;65856;52.178;21.176;2023-09-12T10:09:26;100367.60;;;30.60
76898;BMP180;65856;52.178;21.176;2023-09-12T10:11:55;100368.40;;;30.60
76898;BMP180;65856;52.178;21.176;2023-09-12T10:14:23;100360.20;;;30.50
76898;BMP180;65856;52.178;21.176;2023-09-12T10:17:01;100361.40;;;30.40
76898;BMP180;65856;52.178;21.176;2023-09-12T10:19:54;100360.60;;;30.40
76898;BMP180;65856;52.178;21.176;2023-09-12T10:22:28;100363.20;;;30.40
76898;BMP180;65856;52.178;21.176;2023-09-12T10:24:58;100363.00;;;30.40
76898;BMP180;65856;52.178;21.176;2023-09-12T10:27:25;100359.80;;;30.40
76898;BMP180;65856;52.178;21.176;2023-09-12T10:29:51;100359.40;;;30.40
76898;BMP180;65856;52.178;21.176;2023-09-12T10:32:19;100355.80;;;30.40
76898;BMP180;65856;52.178;21.176;2023-09-12T10:34:49;100356.60;;;30.42
76898;BMP180;65856;52.178;21.176;2023-09-12T10:37:16;100358.00;;;30.50
76898;BMP180;65856;52.178;21.176;2023-09-12T10:39:43;100352.40;;;30.50
76898;BMP180;65856;52.178;21.176;2023-09-12T10:42:10;100355.60;;;30.48
76898;BMP180;65856;52.178;21.176;2023-09-12T10:44:38;100353.60;;;30.50
76898;BMP180;65856;52.178;21.176;2023-09-12T10:47:05;100351.00;;;30.50
76898;BMP180;65856;52.178;21.176;2023-09-12T10:49:31;100345.40;;;30.50
76898;BMP180;65856;52.178;21.176;2023-09-12T10:51:57;100343.40;;;30.52
76898;BMP180;65856;52.178;21.176;2023-09-12T10:54:44;100343.40;;;30.50
76898;BMP180;65856;52.178;21.176;2023-09-12T10:57:11;100344.40;;;30.50
76898;BMP180;65856;52.178;21.176;2023-09-12T11:02:38;100345.80;;;30.30
76898;BMP180;65856;52.178;21.176;2023-09-12T11:05:07;100342.20;;;30.30
76898;BMP180;65856;52.178;21.176;2023-09-12T11:07:57;100336.80;;;30.40
76898;BMP180;65856;52.178;21.176;2023-09-12T11:10:24;100336.20;;;30.40
76898;BMP180;65856;52.178;21.176;2023-09-12T11:12:55;100335.80;;;30.40
76898;BMP180;65856;52.178;21.176;2023-09-12T11:15:28;100336.40;;;30.30
76898;BMP180;65856;52.178;21.176;2023-09-12T11:18:04;100331.60;;;30.32
76898;BMP180;65856;52.178;21.176;2023-09-12T11:21:00;100336.60;;;30.30
76898;BMP180;65856;52.178;21.176;2023-09-12T11:23:29;100338.00;;;30.30
76898;BMP180;65856;52.178;21.176;2023-09-12T11:26:07;100333.40;;;30.30
76898;BMP180;65856;52.178;21.176;2023-09-12T11:28:34;100336.60;;;30.30
76898;BMP180;65856;52.178;21.176;2023-09-12T11:31:00;100333.80;;;30.22
76898;BMP180;65856;52.178;21.176;2023-09-12T11:33:26;100333.80;;;30.20
76898;BMP180;65856;52.178;21.176;2023-09-12T11:35:53;100334.20;;;30.20
76898;BMP180;65856;52.178;21.176;2023-09-12T11:38:30;100331.20;;;30.10
76898;BMP180;65856;52.178;21.176;2023-09-12T11:40:58;100332.60;;;30.10
76898;BMP180;65856;52.178;21.176;2023-09-12T11:43:26;100332.60;;;30.10
76898;BMP180;65856;52.178;21.176;2023-09-12T11:45:56;100339.20;;;30.00
76898;BMP180;65856;52.178;21.176;2023-09-12T11:48:22;100332.20;;;29.90
76898;BMP180;65856;52.178;21.176;2023-09-12T11:50:54;100333.20;;;29.80
76898;BMP180;65856;52.178;21.176;2023-09-12T11:53:27;100332.00;;;29.80
76898;BMP180;65856;52.178;21.176;2023-09-12T11:55:59;100326.60;;;29.80
76898;BMP180;65856;52.178;21.176;2023-09-12T11:58:26;100332.20;;;29.80
76898;BMP180;65856;52.178;21.176;2023-09-12T12:00:57;100331.00;;;29.80
76898;BMP180;65856;52.178;21.176;2023-09-12T12:03:26;100335.40;;;29.70
76898;BMP180;65856;52.178;21.176;2023-09-12T12:05:55;100321.40;;;29.62
76898;BMP180;65856;52.178;21.176;2023-09-12T12:08:21;100324.60;;;29.60
76898;BMP180;65856;52.178;21.176;2023-09-12T12:10:51;100322.00;;;29.60
76898;BMP180;65856;52.178;21.176;2023-09-12T12:13:19;100321.60;;;29.60
76898;BMP180;65856;52.178;21.176;2023-09-12T12:15:46;100326.00;;;29.60
76898;BMP180;65856;52.178;21.176;2023-09-12T12:18:12;100322.60;;;29.52
76898;BMP180;65856;52.178;21.176;2023-09-12T12:20:38;100322.20;;;29.52
76898;BMP180;65856;52.178;21.176;2023-09-12T12:23:04;100318.20;;;29.52
76898;BMP180;65856;52.178;21.176;2023-09-12T12:25:33;100314.40;;;29.52
76898;BMP180;65856;52.178;21.176;2023-09-12T12:28:01;100314.00;;;29.50
76898;BMP180;65856;52.178;21.176;2023-09-12T12:30:35;100317.80;;;29.50
76898;BMP180;65856;52.178;21.176;2023-09-12T12:33:08;100317.40;;;29.50
76898;BMP180;65856;52.178;21.176;2023-09-12T12:35:34;100314.80;;;29.40
76898;BMP180;65856;52.178;21.176;2023-09-12T12:38:02;100317.80;;;29.40
76898;BMP180;65856;52.178;21.176;2023-09-12T12:40:28;100316.40;;;29.40
76898;BMP180;65856;52.178;21.176;2023-09-12T12:42:53;100316.40;;;29.32
76898;BMP180;65856;52.178;21.176;2023-09-12T12:45:22;100312.40;;;29.30
76898;BMP180;65856;52.178;21.176;2023-09-12T12:48:06;100303.60;;;29.30
76898;BMP180;65856;52.178;21.176;2023-09-12T12:50:35;100302.20;;;29.30
76898;BMP180;65856;52.178;21.176;2023-09-12T12:53:01;100302.40;;;29.20
76898;BMP180;65856;52.178;21.176;2023-09-12T12:55:27;100306.00;;;29.12
76898;BMP180;65856;52.178;21.176;2023-09-12T12:57:52;100302.20;;;29.10
76898;BMP180;65856;52.178;21.176;2023-09-12T13:00:18;100307.60;;;29.10
76898;BMP180;65856;52.178;21.176;2023-09-12T13:02:45;100303.60;;;29.10
76898;BMP180;65856;52.178;21.176;2023-09-12T13:05:24;100302.20;;;29.10
76898;BMP180;65856;52.178;21.176;2023-09-12T13:07:51;100298.40;;;29.00
76898;BMP180;65856;52.178;21.176;2023-09-12T13:10:17;100292.60;;;29.00
76898;BMP180;65856;52.178;21.176;2023-09-12T13:12:44;100292.60;;;29.00
76898;BMP180;65856;52.178;21.176;2023-09-12T13:15:13;100290.80;;;29.00
76898;BMP180;65856;52.178;21.176;2023-09-12T13:17:44;100291.20;;;29.00
76898;BMP180;65856;52.178;21.176;2023-09-12T13:20:10;100292.60;;;29.00
76898;BMP180;65856;52.178;21.176;2023-09-12T13:22:37;100294.60;;;29.00
76898;BMP180;65856;52.178;21.176;2023-09-12T13:25:04;100293.20;;;28.98
76898;BMP180;65856;52.178;21.176;2023-09-12T13:27:31;100292.40;;;28.92
76898;BMP180;65856;52.178;21.176;2023-09-12T13:29:56;100293.60;;;28.96
76898;BMP180;65856;52.178;21.176;2023-09-12T13:32:21;100292.00;;;28.94
76898;BMP180;65856;52.178;21.176;2023-09-12T13:34:47;100286.40;;;28.90
76898;BMP180;65856;52.178;21.176;2023-09-12T13:37:13;100287.20;;;28.90
76898;BMP180;65856;52.178;21.176;2023-09-12T13:39:42;100285.80;;;28.90
76898;BMP180;65856;52.178;21.176;2023-09-12T13:42:12;100288.60;;;28.86
76898;BMP180;65856;52.178;21.176;2023-09-12T13:44:39;100286.00;;;28.80
76898;BMP180;65856;52.178;21.176;2023-09-12T13:47:05;100283.20;;;28.80
76898;BMP180;65856;52.178;21.176;2023-09-12T13:49:30;100281.40;;;28.80
76898;BMP180;65856;52.178;21.176;2023-09-12T13:51:56;100285.20;;;28.80
76898;BMP180;65856;52.178;21.176;2023-09-12T13:54:21;100283.80;;;28.80